sensor_id;sensor_type;location;lat;lon;timestamp;temperature;humidity
20070;DHT22;10195;50.868;4.382;2024-01-27T00:00:08;5.80;99.90
20070;DHT22;10195;50.868;4.382;2024-01-27T00:02:34;5.70;99.90
20070;DHT22;10195;50.868;4.382;2024-01-27T00:05:00;5.70;99.90
20070;DHT22;10195;50.868;4.382;2024-01-27T00:07:25;5.70;99.90
20070;DHT22;10195;50.868;4.382;2024-01-27T00:09:52;5.70;99.90
20070;DHT22;10195;50.868;4.382;2024-01-27T00:12:18;5.60;99.90
20070;DHT22;10195;50.868;4.382;2024-01-27T00:14:43;5.60;99.90
20070;DHT22;10195;50.868;4.382;2024-01-27T00:17:10;5.60;99.90
20070;DHT22;10195;50.868;4.382;2024-01-27T00:19:35;5.70;99.90
20070;DHT22;10195;50.868;4.382;2024-01-27T00:22:01;5.60;99.90
20070;DHT22;10195;50.868;4.382;2024-01-27T00:24:27;5.60;99.90
20070;DHT22;10195;50.868;4.382;2024-01-27T00:26:53;5.60;99.90
20070;DHT22;10195;50.868;4.382;2024-01-27T00:29:19;5.50;99.90
20070;DHT22;10195;50.868;4.382;2024-01-27T00:31:45;5.60;99.90
20070;DHT22;10195;50.868;4.382;2024-01-27T00:34:11;5.50;99.90
20070;DHT22;10195;50.868;4.382;2024-01-27T00:36:36;5.50;99.90
20070;DHT22;10195;50.868;4.382;2024-01-27T00:39:03;5.50;99.90
20070;DHT22;10195;50.868;4.382;2024-01-27T00:41:28;5.50;99.90
20070;DHT22;10195;50.868;4.382;2024-01-27T00:43:54;5.40;99.90
20070;DHT22;10195;50.868;4.382;2024-01-27T00:46:20;5.40;99.90
20070;DHT22;10195;50.868;4.382;2024-01-27T00:48:45;5.40;99.90
20070;DHT22;10195;50.868;4.382;2024-01-27T00:51:12;5.40;99.90
20070;DHT22;10195;50.868;4.382;2024-01-27T00:53:38;5.50;99.90
20070;DHT22;10195;50.868;4.382;2024-01-27T00:56:04;5.50;99.90
20070;DHT22;10195;50.868;4.382;2024-01-27T00:58:30;5.40;99.90
20070;DHT22;10195;50.868;4.382;2024-01-27T01:00:56;5.50;99.90
20070;DHT22;10195;50.868;4.382;2024-01-27T01:03:22;5.40;99.90
20070;DHT22;10195;50.868;4.382;2024-01-27T01:05:48;5.40;99.90
20070;DHT22;10195;50.868;4.382;2024-01-27T01:08:13;5.40;99.90
20070;DHT22;10195;50.868;4.382;2024-01-27T01:10:39;5.40;99.90
20070;DHT22;10195;50.868;4.382;2024-01-27T01:13:05;5.30;99.90
20070;DHT22;10195;50.868;4.382;2024-01-27T01:15:31;5.30;99.90
20070;DHT22;10195;50.868;4.382;2024-01-27T01:17:57;5.30;99.90
20070;DHT22;10195;50.868;4.382;2024-01-27T01:20:22;5.30;99.90
20070;DHT22;10195;50.868;4.382;2024-01-27T01:22:52;5.30;99.90
20070;DHT22;10195;50.868;4.382;2024-01-27T01:25:18;5.40;99.90
20070;DHT22;10195;50.868;4.382;2024-01-27T01:27:47;5.30;99.90
20070;DHT22;10195;50.868;4.382;2024-01-27T01:30:15;5.30;99.90
20070;DHT22;10195;50.868;4.382;2024-01-27T01:32:40;5.30;99.90
20070;DHT22;10195;50.868;4.382;2024-01-27T01:35:06;5.30;99.90
20070;DHT22;10195;50.868;4.382;2024-01-27T01:37:32;5.30;99.90
20070;DHT22;10195;50.868;4.382;2024-01-27T01:39:57;5.40;99.90
20070;DHT22;10195;50.868;4.382;2024-01-27T01:42:23;5.30;99.90
20070;DHT22;10195;50.868;4.382;2024-01-27T01:44:51;5.30;99.90
20070;DHT22;10195;50.868;4.382;2024-01-27T01:47:16;5.20;99.90
20070;DHT22;10195;50.868;4.382;2024-01-27T01:49:42;5.20;99.90
20070;DHT22;10195;50.868;4.382;2024-01-27T01:52:08;5.20;99.90
20070;DHT22;10195;50.868;4.382;2024-01-27T01:54:34;5.20;99.90
20070;DHT22;10195;50.868;4.382;2024-01-27T01:57:00;5.20;99.90
20070;DHT22;10195;50.868;4.382;2024-01-27T01:59:26;5.20;99.90
20070;DHT22;10195;50.868;4.382;2024-01-27T02:01:51;5.20;99.90
20070;DHT22;10195;50.868;4.382;2024-01-27T02:04:17;5.20;99.90
20070;DHT22;10195;50.868;4.382;2024-01-27T02:06:43;5.10;99.90
20070;DHT22;10195;50.868;4.382;2024-01-27T02:09:08;5.00;99.90
20070;DHT22;10195;50.868;4.382;2024-01-27T02:11:35;5.00;99.90
20070;DHT22;10195;50.868;4.382;2024-01-27T02:14:01;5.00;99.90
20070;DHT22;10195;50.868;4.382;2024-01-27T02:16:26;5.10;99.90
20070;DHT22;10195;50.868;4.382;2024-01-27T02:18:52;5.10;99.90
20070;DHT22;10195;50.868;4.382;2024-01-27T02:21:18;5.10;99.90
20070;DHT22;10195;50.868;4.382;2024-01-27T02:23:43;5.10;99.90
20070;DHT22;10195;50.868;4.382;2024-01-27T02:26:09;5.00;99.90
20070;DHT22;10195;50.868;4.382;2024-01-27T02:28:35;5.00;99.90
20070;DHT22;10195;50.868;4.382;2024-01-27T02:31:01;5.00;99.90
20070;DHT22;10195;50.868;4.382;2024-01-27T02:33:26;5.00;99.90
20070;DHT22;10195;50.868;4.382;2024-01-27T02:35:52;5.00;99.90
20070;DHT22;10195;50.868;4.382;2024-01-27T02:38:18;5.00;99.90
20070;DHT22;10195;50.868;4.382;2024-01-27T02:40:43;5.00;99.90
20070;DHT22;10195;50.868;4.382;2024-01-27T02:43:09;5.00;99.90
20070;DHT22;10195;50.868;4.382;2024-01-27T02:45:35;5.00;99.90
20070;DHT22;10195;50.868;4.382;2024-01-27T02:48:00;4.90;99.90
20070;DHT22;10195;50.868;4.382;2024-01-27T02:50:26;4.90;99.90
20070;DHT22;10195;50.868;4.382;2024-01-27T02:52:52;4.90;99.90
20070;DHT22;10195;50.868;4.382;2024-01-27T02:55:18;4.90;99.90
20070;DHT22;10195;50.868;4.382;2024-01-27T02:57:43;4.90;99.90
20070;DHT22;10195;50.868;4.382;2024-01-27T03:00:09;4.90;99.90
20070;DHT22;10195;50.868;4.382;2024-01-27T03:02:35;4.80;99.90
20070;DHT22;10195;50.868;4.382;2024-01-27T03:05:01;4.70;99.90
20070;DHT22;10195;50.868;4.382;2024-01-27T03:07:27;4.80;99.90
20070;DHT22;10195;50.868;4.382;2024-01-27T03:09:52;4.70;99.90
20070;DHT22;10195;50.868;4.382;2024-01-27T03:12:18;4.70;99.90
20070;DHT22;10195;50.868;4.382;2024-01-27T03:14:44;4.70;99.90
20070;DHT22;10195;50.868;4.382;2024-01-27T03:17:10;4.70;99.90
20070;DHT22;10195;50.868;4.382;2024-01-27T03:19:36;4.80;99.90
20070;DHT22;10195;50.868;4.382;2024-01-27T03:22:02;4.80;99.90
20070;DHT22;10195;50.868;4.382;2024-01-27T03:24:28;4.70;99.90
20070;DHT22;10195;50.868;4.382;2024-01-27T03:26:53;4.70;99.90
20070;DHT22;10195;50.868;4.382;2024-01-27T03:29:19;4.70;99.90
20070;DHT22;10195;50.868;4.382;2024-01-27T03:31:44;4.70;99.90
20070;DHT22;10195;50.868;4.382;2024-01-27T03:34:10;4.70;99.90
20070;DHT22;10195;50.868;4.382;2024-01-27T03:36:36;4.70;99.90
20070;DHT22;10195;50.868;4.382;2024-01-27T03:39:01;4.70;99.90
20070;DHT22;10195;50.868;4.382;2024-01-27T03:41:30;4.60;99.90
20070;DHT22;10195;50.868;4.382;2024-01-27T03:43:55;4.60;99.90
20070;DHT22;10195;50.868;4.382;2024-01-27T03:46:21;4.60;99.90
20070;DHT22;10195;50.868;4.382;2024-01-27T03:48:47;4.60;99.90
20070;DHT22;10195;50.868;4.382;2024-01-27T03:51:12;4.60;99.90
20070;DHT22;10195;50.868;4.382;2024-01-27T03:53:38;4.60;99.90
20070;DHT22;10195;50.868;4.382;2024-01-27T03:56:04;4.60;99.90
20070;DHT22;10195;50.868;4.382;2024-01-27T03:58:30;4.50;99.90
20070;DHT22;10195;50.868;4.382;2024-01-27T04:00:57;4.50;99.90
20070;DHT22;10195;50.868;4.382;2024-01-27T04:03:23;4.60;99.90
20070;DHT22;10195;50.868;4.382;2024-01-27T04:05:48;4.60;99.90
20070;DHT22;10195;50.868;4.382;2024-01-27T04:08:14;4.60;99.90
20070;DHT22;10195;50.868;4.382;2024-01-27T04:10:39;4.50;99.90
20070;DHT22;10195;50.868;4.382;2024-01-27T04:13:05;4.50;99.90
20070;DHT22;10195;50.868;4.382;2024-01-27T04:15:33;4.50;99.90
20070;DHT22;10195;50.868;4.382;2024-01-27T04:18:04;4.50;99.90
20070;DHT22;10195;50.868;4.382;2024-01-27T04:20:31;4.50;99.90
20070;DHT22;10195;50.868;4.382;2024-01-27T04:22:56;4.50;99.90
20070;DHT22;10195;50.868;4.382;2024-01-27T04:25:22;4.50;99.90
20070;DHT22;10195;50.868;4.382;2024-01-27T04:27:47;4.50;99.90
20070;DHT22;10195;50.868;4.382;2024-01-27T04:30:13;4.50;99.90
20070;DHT22;10195;50.868;4.382;2024-01-27T04:32:39;4.50;99.90
20070;DHT22;10195;50.868;4.382;2024-01-27T04:35:08;4.50;99.90
20070;DHT22;10195;50.868;4.382;2024-01-27T04:37:33;4.50;99.90
20070;DHT22;10195;50.868;4.382;2024-01-27T04:39:59;4.40;99.90
20070;DHT22;10195;50.868;4.382;2024-01-27T04:42:25;4.40;99.90
20070;DHT22;10195;50.868;4.382;2024-01-27T04:44:51;4.30;99.90
20070;DHT22;10195;50.868;4.382;2024-01-27T04:47:17;4.40;99.90
20070;DHT22;10195;50.868;4.382;2024-01-27T04:49:43;4.50;99.90
20070;DHT22;10195;50.868;4.382;2024-01-27T04:52:08;4.40;99.90
20070;DHT22;10195;50.868;4.382;2024-01-27T04:54:34;4.40;99.90
20070;DHT22;10195;50.868;4.382;2024-01-27T04:56:59;4.40;99.90
20070;DHT22;10195;50.868;4.382;2024-01-27T04:59:25;4.50;99.90
20070;DHT22;10195;50.868;4.382;2024-01-27T05:01:51;4.40;99.90
20070;DHT22;10195;50.868;4.382;2024-01-27T05:04:16;4.40;99.90
20070;DHT22;10195;50.868;4.382;2024-01-27T05:06:45;4.40;99.90
20070;DHT22;10195;50.868;4.382;2024-01-27T05:09:11;4.50;99.90
20070;DHT22;10195;50.868;4.382;2024-01-27T05:11:37;4.50;99.90
20070;DHT22;10195;50.868;4.382;2024-01-27T05:14:03;4.50;99.90
20070;DHT22;10195;50.868;4.382;2024-01-27T05:16:29;4.60;99.90
20070;DHT22;10195;50.868;4.382;2024-01-27T05:18:55;4.50;99.90
20070;DHT22;10195;50.868;4.382;2024-01-27T05:21:21;4.50;99.90
20070;DHT22;10195;50.868;4.382;2024-01-27T05:23:47;4.40;99.90
20070;DHT22;10195;50.868;4.382;2024-01-27T05:26:13;4.50;99.90
20070;DHT22;10195;50.868;4.382;2024-01-27T05:28:40;4.40;99.90
20070;DHT22;10195;50.868;4.382;2024-01-27T05:31:09;4.40;99.90
20070;DHT22;10195;50.868;4.382;2024-01-27T05:33:35;4.30;99.90
20070;DHT22;10195;50.868;4.382;2024-01-27T05:36:01;4.40;99.90
20070;DHT22;10195;50.868;4.382;2024-01-27T05:38:27;4.40;99.90
20070;DHT22;10195;50.868;4.382;2024-01-27T05:40:55;4.40;99.90
20070;DHT22;10195;50.868;4.382;2024-01-27T05:43:21;4.40;99.90
20070;DHT22;10195;50.868;4.382;2024-01-27T05:45:48;4.40;99.90
20070;DHT22;10195;50.868;4.382;2024-01-27T05:48:14;4.40;99.90
20070;DHT22;10195;50.868;4.382;2024-01-27T05:50:42;4.30;99.90
20070;DHT22;10195;50.868;4.382;2024-01-27T05:53:08;4.30;99.90
20070;DHT22;10195;50.868;4.382;2024-01-27T05:55:34;4.40;99.90
20070;DHT22;10195;50.868;4.382;2024-01-27T05:57:59;4.40;99.90
20070;DHT22;10195;50.868;4.382;2024-01-27T06:00:25;4.40;99.90
20070;DHT22;10195;50.868;4.382;2024-01-27T06:02:50;4.40;99.90
20070;DHT22;10195;50.868;4.382;2024-01-27T06:05:17;4.30;99.90
20070;DHT22;10195;50.868;4.382;2024-01-27T06:07:42;4.30;99.90
20070;DHT22;10195;50.868;4.382;2024-01-27T06:10:09;4.20;99.90
20070;DHT22;10195;50.868;4.382;2024-01-27T06:12:35;4.20;99.90
20070;DHT22;10195;50.868;4.382;2024-01-27T06:15:01;4.20;99.90
20070;DHT22;10195;50.868;4.382;2024-01-27T06:17:26;4.20;99.90
20070;DHT22;10195;50.868;4.382;2024-01-27T06:19:52;4.20;99.90
20070;DHT22;10195;50.868;4.382;2024-01-27T06:22:18;4.10;99.90
20070;DHT22;10195;50.868;4.382;2024-01-27T06:24:43;4.20;99.90
20070;DHT22;10195;50.868;4.382;2024-01-27T06:27:10;4.20;99.90
20070;DHT22;10195;50.868;4.382;2024-01-27T06:29:36;4.10;99.90
20070;DHT22;10195;50.868;4.382;2024-01-27T06:32:01;4.00;99.90
20070;DHT22;10195;50.868;4.382;2024-01-27T06:34:27;4.00;99.90
20070;DHT22;10195;50.868;4.382;2024-01-27T06:36:53;4.10;99.90
20070;DHT22;10195;50.868;4.382;2024-01-27T06:39:19;4.10;99.90
20070;DHT22;10195;50.868;4.382;2024-01-27T06:41:45;4.10;99.90
20070;DHT22;10195;50.868;4.382;2024-01-27T06:44:11;4.10;99.90
20070;DHT22;10195;50.868;4.382;2024-01-27T06:46:37;4.20;99.90
20070;DHT22;10195;50.868;4.382;2024-01-27T06:49:02;4.30;99.90
20070;DHT22;10195;50.868;4.382;2024-01-27T06:51:28;4.20;99.90
20070;DHT22;10195;50.868;4.382;2024-01-27T06:53:53;4.20;99.90
20070;DHT22;10195;50.868;4.382;2024-01-27T06:56:19;4.30;99.90
20070;DHT22;10195;50.868;4.382;2024-01-27T06:58:45;4.30;99.90
20070;DHT22;10195;50.868;4.382;2024-01-27T07:01:10;4.20;99.90
20070;DHT22;10195;50.868;4.382;2024-01-27T07:03:36;4.20;99.90
20070;DHT22;10195;50.868;4.382;2024-01-27T07:06:01;4.30;99.90
20070;DHT22;10195;50.868;4.382;2024-01-27T07:08:27;4.20;99.90
20070;DHT22;10195;50.868;4.382;2024-01-27T07:10:53;4.20;99.90
20070;DHT22;10195;50.868;4.382;2024-01-27T07:13:18;4.20;99.90
20070;DHT22;10195;50.868;4.382;2024-01-27T07:15:44;4.30;99.90
20070;DHT22;10195;50.868;4.382;2024-01-27T07:18:10;4.40;99.90
20070;DHT22;10195;50.868;4.382;2024-01-27T07:20:36;4.30;99.90
20070;DHT22;10195;50.868;4.382;2024-01-27T07:23:02;4.40;99.90
20070;DHT22;10195;50.868;4.382;2024-01-27T07:25:28;4.40;99.90
20070;DHT22;10195;50.868;4.382;2024-01-27T07:27:55;4.50;99.90
20070;DHT22;10195;50.868;4.382;2024-01-27T07:30:20;4.40;99.90
20070;DHT22;10195;50.868;4.382;2024-01-27T07:32:46;4.30;99.90
20070;DHT22;10195;50.868;4.382;2024-01-27T07:35:12;4.30;99.90
20070;DHT22;10195;50.868;4.382;2024-01-27T07:37:37;4.40;99.90
20070;DHT22;10195;50.868;4.382;2024-01-27T07:40:03;4.40;99.90
20070;DHT22;10195;50.868;4.382;2024-01-27T07:42:29;4.50;99.90
20070;DHT22;10195;50.868;4.382;2024-01-27T07:44:55;4.50;99.90
20070;DHT22;10195;50.868;4.382;2024-01-27T07:47:20;4.60;99.90
20070;DHT22;10195;50.868;4.382;2024-01-27T07:49:46;4.60;99.90
20070;DHT22;10195;50.868;4.382;2024-01-27T07:52:14;4.70;99.90
20070;DHT22;10195;50.868;4.382;2024-01-27T07:54:39;4.70;99.90
20070;DHT22;10195;50.868;4.382;2024-01-27T07:57:05;4.70;99.90
20070;DHT22;10195;50.868;4.382;2024-01-27T07:59:32;4.70;99.90
20070;DHT22;10195;50.868;4.382;2024-01-27T08:01:59;4.70;99.90
20070;DHT22;10195;50.868;4.382;2024-01-27T08:04:24;4.70;99.90
20070;DHT22;10195;50.868;4.382;2024-01-27T08:06:50;4.80;99.90
20070;DHT22;10195;50.868;4.382;2024-01-27T08:09:17;4.80;99.90
20070;DHT22;10195;50.868;4.382;2024-01-27T08:11:43;4.90;99.90
20070;DHT22;10195;50.868;4.382;2024-01-27T08:14:09;4.90;99.90
20070;DHT22;10195;50.868;4.382;2024-01-27T08:16:35;4.90;99.90
20070;DHT22;10195;50.868;4.382;2024-01-27T08:19:01;4.90;99.90
20070;DHT22;10195;50.868;4.382;2024-01-27T08:21:27;4.90;99.90
20070;DHT22;10195;50.868;4.382;2024-01-27T08:23:53;5.00;99.90
20070;DHT22;10195;50.868;4.382;2024-01-27T08:26:20;5.10;99.90
20070;DHT22;10195;50.868;4.382;2024-01-27T08:28:46;5.30;99.90
20070;DHT22;10195;50.868;4.382;2024-01-27T08:31:12;5.50;99.90
20070;DHT22;10195;50.868;4.382;2024-01-27T08:33:38;5.60;99.90
20070;DHT22;10195;50.868;4.382;2024-01-27T08:36:04;5.60;99.90
20070;DHT22;10195;50.868;4.382;2024-01-27T08:38:29;5.60;99.90
20070;DHT22;10195;50.868;4.382;2024-01-27T08:40:55;5.70;99.90
20070;DHT22;10195;50.868;4.382;2024-01-27T08:43:21;5.80;99.90
20070;DHT22;10195;50.868;4.382;2024-01-27T08:45:46;5.90;99.90
20070;DHT22;10195;50.868;4.382;2024-01-27T08:48:12;6.00;99.90
20070;DHT22;10195;50.868;4.382;2024-01-27T08:50:38;6.10;99.90
20070;DHT22;10195;50.868;4.382;2024-01-27T08:53:04;6.30;99.90
20070;DHT22;10195;50.868;4.382;2024-01-27T08:55:29;6.90;99.90
20070;DHT22;10195;50.868;4.382;2024-01-27T08:57:56;7.20;99.90
20070;DHT22;10195;50.868;4.382;2024-01-27T09:00:22;7.80;99.90
20070;DHT22;10195;50.868;4.382;2024-01-27T09:02:48;8.10;99.90
20070;DHT22;10195;50.868;4.382;2024-01-27T09:05:14;8.20;99.90
20070;DHT22;10195;50.868;4.382;2024-01-27T09:07:39;8.30;99.90
20070;DHT22;10195;50.868;4.382;2024-01-27T09:10:06;8.40;99.90
20070;DHT22;10195;50.868;4.382;2024-01-27T09:12:32;8.30;99.90
20070;DHT22;10195;50.868;4.382;2024-01-27T09:14:58;8.50;99.90
20070;DHT22;10195;50.868;4.382;2024-01-27T09:17:24;8.80;99.90
20070;DHT22;10195;50.868;4.382;2024-01-27T09:19:49;9.00;99.90
20070;DHT22;10195;50.868;4.382;2024-01-27T09:22:16;9.40;99.90
20070;DHT22;10195;50.868;4.382;2024-01-27T09:24:42;10.00;99.90
20070;DHT22;10195;50.868;4.382;2024-01-27T09:27:10;10.90;99.90
20070;DHT22;10195;50.868;4.382;2024-01-27T09:29:36;11.90;99.90
20070;DHT22;10195;50.868;4.382;2024-01-27T09:32:02;12.60;99.90
20070;DHT22;10195;50.868;4.382;2024-01-27T09:34:28;13.30;99.90
20070;DHT22;10195;50.868;4.382;2024-01-27T09:36:53;13.60;99.90
20070;DHT22;10195;50.868;4.382;2024-01-27T09:39:19;14.10;99.90
20070;DHT22;10195;50.868;4.382;2024-01-27T09:41:45;14.00;99.90
20070;DHT22;10195;50.868;4.382;2024-01-27T09:44:14;14.10;99.90
20070;DHT22;10195;50.868;4.382;2024-01-27T09:46:41;14.50;99.90
20070;DHT22;10195;50.868;4.382;2024-01-27T09:49:09;14.50;99.90
20070;DHT22;10195;50.868;4.382;2024-01-27T09:51:41;14.40;99.90
20070;DHT22;10195;50.868;4.382;2024-01-27T09:54:07;14.20;99.90
20070;DHT22;10195;50.868;4.382;2024-01-27T09:56:34;14.50;99.90
20070;DHT22;10195;50.868;4.382;2024-01-27T09:59:00;14.50;99.90
20070;DHT22;10195;50.868;4.382;2024-01-27T10:01:27;14.70;99.90
20070;DHT22;10195;50.868;4.382;2024-01-27T10:03:54;14.30;99.90
20070;DHT22;10195;50.868;4.382;2024-01-27T10:06:21;13.80;99.90
20070;DHT22;10195;50.868;4.382;2024-01-27T10:08:56;13.00;99.90
20070;DHT22;10195;50.868;4.382;2024-01-27T10:11:23;13.00;99.90
20070;DHT22;10195;50.868;4.382;2024-01-27T10:13:56;13.30;99.90
20070;DHT22;10195;50.868;4.382;2024-01-27T10:16:21;13.90;99.90
20070;DHT22;10195;50.868;4.382;2024-01-27T10:18:47;14.20;99.90
20070;DHT22;10195;50.868;4.382;2024-01-27T10:21:17;14.70;99.90
20070;DHT22;10195;50.868;4.382;2024-01-27T10:23:43;14.70;99.90
20070;DHT22;10195;50.868;4.382;2024-01-27T10:26:09;14.00;99.90
20070;DHT22;10195;50.868;4.382;2024-01-27T10:28:35;13.30;99.90
20070;DHT22;10195;50.868;4.382;2024-01-27T10:31:11;12.10;99.90
20070;DHT22;10195;50.868;4.382;2024-01-27T10:33:37;11.80;99.90
20070;DHT22;10195;50.868;4.382;2024-01-27T10:36:03;11.70;99.90
20070;DHT22;10195;50.868;4.382;2024-01-27T10:38:36;11.10;99.90
20070;DHT22;10195;50.868;4.382;2024-01-27T10:41:07;10.60;99.90
20070;DHT22;10195;50.868;4.382;2024-01-27T10:43:35;10.50;99.90
20070;DHT22;10195;50.868;4.382;2024-01-27T10:46:07;10.60;99.90
20070;DHT22;10195;50.868;4.382;2024-01-27T10:48:34;10.30;99.90
20070;DHT22;10195;50.868;4.382;2024-01-27T10:51:07;10.20;99.90
20070;DHT22;10195;50.868;4.382;2024-01-27T10:53:35;10.10;99.90
20070;DHT22;10195;50.868;4.382;2024-01-27T10:56:03;10.00;99.90
20070;DHT22;10195;50.868;4.382;2024-01-27T10:58:35;10.30;99.90
20070;DHT22;10195;50.868;4.382;2024-01-27T11:01:08;11.30;99.90
20070;DHT22;10195;50.868;4.382;2024-01-27T11:03:40;11.90;99.90
20070;DHT22;10195;50.868;4.382;2024-01-27T11:06:06;12.70;99.90
20070;DHT22;10195;50.868;4.382;2024-01-27T11:08:34;13.70;99.90
20070;DHT22;10195;50.868;4.382;2024-01-27T11:11:00;14.30;99.90
20070;DHT22;10195;50.868;4.382;2024-01-27T11:13:28;13.90;99.90
20070;DHT22;10195;50.868;4.382;2024-01-27T11:15:55;14.40;99.90
20070;DHT22;10195;50.868;4.382;2024-01-27T11:18:21;14.60;99.90
20070;DHT22;10195;50.868;4.382;2024-01-27T11:20:47;14.40;99.90
20070;DHT22;10195;50.868;4.382;2024-01-27T11:23:13;14.10;99.90
20070;DHT22;10195;50.868;4.382;2024-01-27T11:25:40;13.80;99.90
20070;DHT22;10195;50.868;4.382;2024-01-27T11:28:16;13.30;99.90
20070;DHT22;10195;50.868;4.382;2024-01-27T11:30:46;12.90;99.90
20070;DHT22;10195;50.868;4.382;2024-01-27T11:33:13;12.50;99.90
20070;DHT22;10195;50.868;4.382;2024-01-27T11:35:39;12.00;99.90
20070;DHT22;10195;50.868;4.382;2024-01-27T11:38:04;11.80;99.90
20070;DHT22;10195;50.868;4.382;2024-01-27T11:40:30;11.70;99.90
20070;DHT22;10195;50.868;4.382;2024-01-27T11:43:00;11.70;99.90
20070;DHT22;10195;50.868;4.382;2024-01-27T11:45:27;11.50;99.90
20070;DHT22;10195;50.868;4.382;2024-01-27T11:47:56;10.80;99.90
20070;DHT22;10195;50.868;4.382;2024-01-27T11:50:22;10.20;99.90
20070;DHT22;10195;50.868;4.382;2024-01-27T11:52:48;9.90;99.90
20070;DHT22;10195;50.868;4.382;2024-01-27T11:55:15;10.00;99.90
20070;DHT22;10195;50.868;4.382;2024-01-27T11:57:41;10.00;99.90
20070;DHT22;10195;50.868;4.382;2024-01-27T12:00:08;9.80;99.90
20070;DHT22;10195;50.868;4.382;2024-01-27T12:02:35;9.40;99.90
20070;DHT22;10195;50.868;4.382;2024-01-27T12:05:01;9.60;99.90
20070;DHT22;10195;50.868;4.382;2024-01-27T12:07:27;9.80;99.90
20070;DHT22;10195;50.868;4.382;2024-01-27T12:09:53;9.90;99.90
20070;DHT22;10195;50.868;4.382;2024-01-27T12:12:19;10.10;99.90
20070;DHT22;10195;50.868;4.382;2024-01-27T12:14:46;10.10;99.90
20070;DHT22;10195;50.868;4.382;2024-01-27T12:17:13;10.10;99.90
20070;DHT22;10195;50.868;4.382;2024-01-27T12:19:39;10.00;99.90
20070;DHT22;10195;50.868;4.382;2024-01-27T12:22:05;10.00;99.90
20070;DHT22;10195;50.868;4.382;2024-01-27T12:24:45;10.30;99.90
20070;DHT22;10195;50.868;4.382;2024-01-27T12:27:11;10.50;99.90
20070;DHT22;10195;50.868;4.382;2024-01-27T12:29:37;10.50;99.90
20070;DHT22;10195;50.868;4.382;2024-01-27T12:32:02;10.50;99.90
20070;DHT22;10195;50.868;4.382;2024-01-27T12:34:29;10.60;99.90
20070;DHT22;10195;50.868;4.382;2024-01-27T12:36:55;10.60;99.90
20070;DHT22;10195;50.868;4.382;2024-01-27T12:39:21;10.70;99.90
20070;DHT22;10195;50.868;4.382;2024-01-27T12:41:46;10.70;99.90
20070;DHT22;10195;50.868;4.382;2024-01-27T12:44:12;10.90;99.90
20070;DHT22;10195;50.868;4.382;2024-01-27T12:46:38;10.90;99.90
20070;DHT22;10195;50.868;4.382;2024-01-27T12:49:04;10.60;99.90
20070;DHT22;10195;50.868;4.382;2024-01-27T12:51:30;10.60;99.90
20070;DHT22;10195;50.868;4.382;2024-01-27T12:53:56;10.80;99.90
20070;DHT22;10195;50.868;4.382;2024-01-27T12:56:22;10.80;99.90
20070;DHT22;10195;50.868;4.382;2024-01-27T12:58:47;11.00;99.90
20070;DHT22;10195;50.868;4.382;2024-01-27T13:01:13;10.80;99.90
20070;DHT22;10195;50.868;4.382;2024-01-27T13:03:39;10.60;99.90
20070;DHT22;10195;50.868;4.382;2024-01-27T13:06:05;10.40;99.90
20070;DHT22;10195;50.868;4.382;2024-01-27T13:08:30;10.20;99.90
20070;DHT22;10195;50.868;4.382;2024-01-27T13:10:56;10.10;99.90
20070;DHT22;10195;50.868;4.382;2024-01-27T13:13:22;9.90;99.90
20070;DHT22;10195;50.868;4.382;2024-01-27T13:15:47;10.10;99.90
20070;DHT22;10195;50.868;4.382;2024-01-27T13:18:13;10.30;99.90
20070;DHT22;10195;50.868;4.382;2024-01-27T13:20:39;10.50;99.90
20070;DHT22;10195;50.868;4.382;2024-01-27T13:23:06;10.30;99.90
20070;DHT22;10195;50.868;4.382;2024-01-27T13:25:32;10.30;99.90
20070;DHT22;10195;50.868;4.382;2024-01-27T13:27:57;10.40;99.90
20070;DHT22;10195;50.868;4.382;2024-01-27T13:30:23;10.50;99.90
20070;DHT22;10195;50.868;4.382;2024-01-27T13:32:49;10.50;99.90
20070;DHT22;10195;50.868;4.382;2024-01-27T13:35:15;10.50;99.90
20070;DHT22;10195;50.868;4.382;2024-01-27T13:37:40;10.50;99.90
20070;DHT22;10195;50.868;4.382;2024-01-27T13:40:08;10.50;99.90
20070;DHT22;10195;50.868;4.382;2024-01-27T13:42:35;10.60;99.90
20070;DHT22;10195;50.868;4.382;2024-01-27T13:45:01;10.70;99.90
20070;DHT22;10195;50.868;4.382;2024-01-27T13:47:27;10.90;99.90
20070;DHT22;10195;50.868;4.382;2024-01-27T13:49:53;10.80;99.90
20070;DHT22;10195;50.868;4.382;2024-01-27T13:52:19;10.60;99.90
20070;DHT22;10195;50.868;4.382;2024-01-27T13:54:45;10.70;99.90
20070;DHT22;10195;50.868;4.382;2024-01-27T13:57:11;10.60;99.90
20070;DHT22;10195;50.868;4.382;2024-01-27T13:59:37;10.60;99.90
20070;DHT22;10195;50.868;4.382;2024-01-27T14:02:03;10.50;99.90
20070;DHT22;10195;50.868;4.382;2024-01-27T14:04:32;10.70;99.90
20070;DHT22;10195;50.868;4.382;2024-01-27T14:06:58;10.60;99.90
20070;DHT22;10195;50.868;4.382;2024-01-27T14:09:28;10.60;99.90
20070;DHT22;10195;50.868;4.382;2024-01-27T14:11:53;10.60;99.90
20070;DHT22;10195;50.868;4.382;2024-01-27T14:14:19;10.60;99.90
20070;DHT22;10195;50.868;4.382;2024-01-27T14:16:46;10.50;99.90
20070;DHT22;10195;50.868;4.382;2024-01-27T14:19:12;10.40;99.90
20070;DHT22;10195;50.868;4.382;2024-01-27T14:21:38;10.20;99.90
20070;DHT22;10195;50.868;4.382;2024-01-27T14:24:05;10.20;99.90
20070;DHT22;10195;50.868;4.382;2024-01-27T14:26:32;10.10;99.90
20070;DHT22;10195;50.868;4.382;2024-01-27T14:28:58;10.10;99.90
20070;DHT22;10195;50.868;4.382;2024-01-27T14:31:23;10.20;99.90
20070;DHT22;10195;50.868;4.382;2024-01-27T14:33:49;10.20;99.90
20070;DHT22;10195;50.868;4.382;2024-01-27T14:36:15;10.20;99.90
20070;DHT22;10195;50.868;4.382;2024-01-27T14:38:44;10.20;99.90
20070;DHT22;10195;50.868;4.382;2024-01-27T14:41:09;10.30;99.90
20070;DHT22;10195;50.868;4.382;2024-01-27T14:43:38;10.20;99.90
20070;DHT22;10195;50.868;4.382;2024-01-27T14:46:04;10.00;99.90
20070;DHT22;10195;50.868;4.382;2024-01-27T14:48:30;9.80;99.90
20070;DHT22;10195;50.868;4.382;2024-01-27T14:50:57;9.80;99.90
20070;DHT22;10195;50.868;4.382;2024-01-27T14:53:29;9.70;99.90
20070;DHT22;10195;50.868;4.382;2024-01-27T14:55:55;9.70;99.90
20070;DHT22;10195;50.868;4.382;2024-01-27T14:58:22;9.70;99.90
20070;DHT22;10195;50.868;4.382;2024-01-27T15:00:48;9.60;99.90
20070;DHT22;10195;50.868;4.382;2024-01-27T15:03:23;9.60;99.90
20070;DHT22;10195;50.868;4.382;2024-01-27T15:05:52;9.60;99.90
20070;DHT22;10195;50.868;4.382;2024-01-27T15:08:19;9.60;99.90
20070;DHT22;10195;50.868;4.382;2024-01-27T15:10:45;9.50;99.90
20070;DHT22;10195;50.868;4.382;2024-01-27T15:13:13;9.50;99.90
20070;DHT22;10195;50.868;4.382;2024-01-27T15:15:40;9.50;99.90
20070;DHT22;10195;50.868;4.382;2024-01-27T15:18:07;9.50;99.90
20070;DHT22;10195;50.868;4.382;2024-01-27T15:20:33;9.40;99.90
20070;DHT22;10195;50.868;4.382;2024-01-27T15:22:59;9.40;99.90
20070;DHT22;10195;50.868;4.382;2024-01-27T15:25:24;9.40;99.90
20070;DHT22;10195;50.868;4.382;2024-01-27T15:27:50;9.40;99.90
20070;DHT22;10195;50.868;4.382;2024-01-27T15:30:17;9.40;99.90
20070;DHT22;10195;50.868;4.382;2024-01-27T15:32:44;9.40;99.90